Time;durP1;ratioP1;P1;durP2;ratioP2;P2;SDS_P1;SDS_P2;PMS_P1;PMS_P2;Temp;Humidity;BMP_temperature;BMP_pressure;BME280_temperature;BME280_humidity;BME280_pressure;Samples;Min_cycle;Max_cycle;Signal;HPM_P1;HPM_P2
2021/01/18 00:02:08;;;;;;;24.12;11.00;;;;;;;-13.99;64.30;99499.59;1737212;82;21284;-67
2021/01/18 00:04:36;;;;;;;24.52;10.93;;;;;;;-14.05;64.32;99502.83;1696286;83;21159;-67
2021/01/18 00:07:06;;;;;;;22.25;10.05;;;;;;;-14.16;64.09;99503.84;1736160;82;21184;-66
2021/01/18 00:09:34;;;;;;;27.95;11.85;;;;;;;-14.21;64.02;99504.98;1745429;81;21170;-67
2021/01/18 00:12:02;;;;;;;32.25;13.72;;;;;;;-14.24;64.04;99515.51;1743169;81;21348;-68
2021/01/18 00:14:29;;;;;;;38.92;15.95;;;;;;;-14.29;64.25;99506.88;1713628;83;21187;-67
2021/01/18 00:16:57;;;;;;;41.53;16.17;;;;;;;-14.28;64.59;99517.49;1660432;85;21250;-67
2021/01/18 00:19:24;;;;;;;42.33;18.27;;;;;;;-14.27;64.77;99517.95;1744213;81;21351;-67
2021/01/18 00:21:52;;;;;;;39.75;17.40;;;;;;;-14.28;64.99;99518.77;1742978;81;21817;-67
2021/01/18 00:24:19;;;;;;;37.30;15.75;;;;;;;-14.22;65.12;99516.00;1726404;82;21175;-67
2021/01/18 00:26:48;;;;;;;36.98;15.40;;;;;;;-14.16;65.10;99512.73;1725939;81;21189;-67
2021/01/18 00:29:15;;;;;;;41.70;17.17;;;;;;;-14.15;65.32;99510.66;1739601;81;21199;-67
2021/01/18 00:31:46;;;;;;;41.15;17.02;;;;;;;-14.16;65.08;99519.09;1750592;81;21171;-66
2021/01/18 00:34:13;;;;;;;35.33;15.85;;;;;;;-14.15;65.27;99513.58;1724938;82;21186;-67
2021/01/18 00:36:47;;;;;;;37.67;16.12;;;;;;;-14.12;65.12;99511.14;1730420;81;21179;-66
2021/01/18 00:39:15;;;;;;;40.17;17.67;;;;;;;-14.09;65.25;99513.34;1733509;81;21573;-68
2021/01/18 00:41:42;;;;;;;43.50;18.05;;;;;;;-13.99;64.92;99523.73;1758118;81;21188;-66
2021/01/18 00:44:09;;;;;;;45.28;19.02;;;;;;;-13.96;64.67;99516.17;1753913;81;21160;-67
2021/01/18 00:46:36;;;;;;;41.75;17.55;;;;;;;-13.99;64.60;99511.03;1745546;81;21755;-67
2021/01/18 00:49:05;;;;;;;42.95;17.02;;;;;;;-14.04;64.50;99504.16;1739724;81;21294;-66
2021/01/18 00:51:38;;;;;;;45.58;17.50;;;;;;;-14.12;64.47;99503.09;1705687;83;21764;-66
2021/01/18 00:54:08;;;;;;;36.05;16.60;;;;;;;-14.18;64.59;99518.18;1749371;81;21096;-65
2021/01/18 00:56:37;;;;;;;39.30;16.50;;;;;;;-14.16;64.85;99510.20;1749223;81;21700;-66
2021/01/18 00:59:06;;;;;;;39.78;17.15;;;;;;;-14.12;64.90;99518.34;1723891;83;21189;-66
2021/01/18 01:01:46;;;;;;;50.43;16.80;;;;;;;-14.07;64.86;99519.73;1781096;78;23046;-67
2021/01/18 01:04:17;;;;;;;41.25;17.15;;;;;;;-14.10;64.84;99521.80;1751670;80;21181;-67
2021/01/18 01:06:44;;;;;;;57.90;21.05;;;;;;;-14.08;64.58;99516.73;1751564;80;21631;-67
2021/01/18 01:09:11;;;;;;;51.90;20.32;;;;;;;-14.10;64.45;99509.09;1750103;82;21290;-68
2021/01/18 01:11:45;;;;;;;51.10;20.00;;;;;;;-14.11;64.52;99510.32;1755092;80;21219;-66
2021/01/18 01:14:13;;;;;;;40.78;17.82;;;;;;;-14.10;64.55;99511.63;1762353;80;21316;-66
2021/01/18 01:16:43;;;;;;;43.10;17.75;;;;;;;-14.11;64.44;99509.90;1780475;80;21768;-65
2021/01/18 01:19:11;;;;;;;40.85;17.07;;;;;;;-14.13;64.50;99508.98;1752925;80;21178;-67
2021/01/18 01:21:38;;;;;;;34.27;16.65;;;;;;;-14.13;64.51;99516.61;1759249;80;21194;-67
2021/01/18 01:24:07;;;;;;;41.73;18.05;;;;;;;-14.34;64.50;99483.49;1759802;80;21292;-67
2021/01/18 01:26:34;;;;;;;40.48;17.60;;;;;;;-14.17;64.55;99517.36;1761414;80;21146;-66
2021/01/18 01:29:01;;;;;;;41.85;17.65;;;;;;;-14.14;64.44;99522.55;1752823;80;21142;-66
2021/01/18 01:31:29;;;;;;;39.13;15.68;;;;;;;-14.12;64.35;99520.87;1751658;81;21589;-66
2021/01/18 01:33:56;;;;;;;34.78;15.65;;;;;;;-14.12;64.05;99515.80;1756196;81;21313;-66
2021/01/18 01:36:23;;;;;;;36.63;16.10;;;;;;;-14.19;64.08;99526.65;1763876;80;21277;-66
2021/01/18 01:38:51;;;;;;;39.18;16.90;;;;;;;-14.24;64.01;99507.89;1775338;80;21163;-66
2021/01/18 01:41:18;;;;;;;34.85;15.80;;;;;;;-14.27;64.07;99510.33;1751070;81;21197;-66
2021/01/18 01:43:45;;;;;;;40.80;16.85;;;;;;;-14.34;64.08;99510.16;1751184;80;21169;-66
2021/01/18 01:46:14;;;;;;;40.35;17.32;;;;;;;-14.37;64.03;99508.83;1752919;80;21154;-66
2021/01/18 01:48:41;;;;;;;37.63;16.45;;;;;;;-14.39;64.10;99513.00;1758335;80;21249;-66
2021/01/18 01:51:08;;;;;;;43.78;16.55;;;;;;;-14.36;64.09;99506.75;1780711;80;21209;-66
2021/01/18 01:53:35;;;;;;;42.98;16.90;;;;;;;-14.39;64.09;99504.11;1781330;80;21265;-66
2021/01/18 01:56:03;;;;;;;38.00;17.25;;;;;;;-14.45;63.97;99509.02;1762201;80;21322;-66
2021/01/18 01:58:31;;;;;;;40.03;16.75;;;;;;;-14.48;63.90;99495.41;1780246;80;21198;-66
2021/01/18 02:00:58;;;;;;;31.12;14.73;;;;;;;-14.51;63.78;99500.00;1757576;80;21583;-66
2021/01/18 02:06:08;;;;;;;38.75;16.60;;;;;;;-14.70;63.89;99489.38;1779867;79;23580;-66
2021/01/18 02:08:36;;;;;;;32.42;15.00;;;;;;;-14.78;63.91;99493.39;1752509;80;21320;-66
2021/01/18 02:11:05;;;;;;;32.55;15.95;;;;;;;-14.79;64.00;99498.02;1734866;82;21175;-66
2021/01/18 02:13:45;;;;;;;51.53;17.85;;;;;;;-14.77;64.15;99503.97;1729066;82;21645;-66
2021/01/18 02:16:49;;;;;;;32.28;15.83;;;;;;;-14.77;64.05;99509.05;1756057;81;21181;-67
2021/01/18 02:19:47;;;;;;;42.38;16.60;;;;;;;-14.77;64.05;99503.97;1742276;82;21627;-66
2021/01/18 02:22:53;;;;;;;38.50;15.10;;;;;;;-14.74;63.96;99501.92;1728725;82;21330;-65
2021/01/18 02:25:29;;;;;;;38.65;15.05;;;;;;;-14.79;63.83;99495.47;1724375;82;21134;-66
2021/01/18 02:28:11;;;;;;;34.25;15.08;;;;;;;-14.80;63.68;99505.59;1725735;82;21775;-66
2021/01/18 02:30:59;;;;;;;35.08;16.12;;;;;;;-14.82;63.54;99502.98;1736208;82;21285;-66
2021/01/18 02:33:47;;;;;;;29.87;13.25;;;;;;;-14.85;63.36;99505.45;1694516;84;21182;-66
2021/01/18 02:36:41;;;;;;;32.08;14.93;;;;;;;-14.93;63.18;99508.17;1708269;82;21221;-66
2021/01/18 02:39:24;;;;;;;;;;;;;;;-15.10;63.31;99518.73;1728284;83;21158;-66
2021/01/18 02:42:07;;;;;;;35.23;15.70;;;;;;;-15.14;63.49;99514.35;1713154;82;20672;-66
2021/01/18 02:44:34;;;;;;;40.55;15.20;;;;;;;-15.21;63.53;99511.20;1731367;81;21191;-65
2021/01/18 02:47:02;;;;;;;43.00;17.48;;;;;;;-15.25;63.56;99510.64;1729956;82;22430;-66
2021/01/18 02:49:29;;;;;;;40.92;16.17;;;;;;;-15.27;63.47;99522.44;1742228;82;21646;-66
2021/01/18 02:52:10;;;;;;;43.73;15.70;;;;;;;-15.33;63.57;99525.24;1722140;82;21166;-67
2021/01/18 02:54:37;;;;;;;35.50;15.68;;;;;;;-15.36;63.66;99520.06;1752409;82;21179;-66
2021/01/18 02:57:06;;;;;;;35.63;15.35;;;;;;;-15.33;63.86;99525.24;1755669;81;21186;-66
2021/01/18 02:59:33;;;;;;;34.27;14.53;;;;;;;-15.34;63.81;99517.17;1752075;81;21296;-67
2021/01/18 03:02:12;;;;;;;36.35;15.35;;;;;;;-15.33;63.82;99521.83;1755958;81;21179;-66
2021/01/18 03:05:17;;;;;;;33.15;15.53;;;;;;;-15.34;63.85;99528.59;1752200;81;21643;-67
2021/01/18 03:08:04;;;;;;;27.73;13.18;;;;;;;-15.36;63.68;99527.67;1745244;82;21745;-66
2021/01/18 03:10:42;;;;;;;35.00;14.85;;;;;;;-15.37;63.56;99531.05;1721577;82;21215;-65
2021/01/18 03:13:24;;;;;;;31.93;14.20;;;;;;;-15.44;63.54;99529.55;1715618;83;21142;-66
2021/01/18 03:15:56;;;;;;;34.35;14.65;;;;;;;-15.54;63.45;99527.97;1724916;82;21508;-66
2021/01/18 03:18:24;;;;;;;38.98;16.27;;;;;;;-15.63;63.44;99529.38;1713817;82;21166;-66
2021/01/18 03:20:51;;;;;;;36.03;15.32;;;;;;;-15.68;63.67;99530.08;1688227;84;21108;-65
2021/01/18 03:23:18;;;;;;;36.55;16.65;;;;;;;-15.71;63.88;99531.27;1744568;81;21615;-66
2021/01/18 03:25:51;;;;;;;34.83;15.05;;;;;;;-15.71;64.02;99540.55;1740949;82;21628;-66
2021/01/18 03:28:19;;;;;;;35.92;16.73;;;;;;;-15.71;63.84;99533.80;1714105;82;21155;-66
2021/01/18 03:30:46;;;;;;;26.23;11.88;;;;;;;-15.79;63.67;99536.51;1699854;82;21185;-66
2021/01/18 03:33:14;;;;;;;37.05;14.55;;;;;;;-15.89;63.62;99530.30;1733790;82;21179;-67
2021/01/18 03:35:43;;;;;;;31.95;13.40;;;;;;;-15.95;63.73;99546.98;1744746;82;21608;-67
2021/01/18 03:38:10;;;;;;;32.45;13.13;;;;;;;-15.97;63.81;99537.20;1739679;81;21270;-66
2021/01/18 03:40:37;;;;;;;30.90;13.68;;;;;;;-16.00;63.73;99543.87;1744719;82;21320;-70
2021/01/18 03:43:07;;;;;;;34.08;13.72;;;;;;;-16.01;63.88;99537.50;1740975;82;21317;-66
2021/01/18 03:45:41;;;;;;;35.92;13.80;;;;;;;-16.02;63.84;99538.30;1715042;82;21194;-66
2021/01/18 03:48:09;;;;;;;;;;;;;;;-16.09;63.90;99546.11;1711349;82;21190;-66
2021/01/18 03:50:38;;;;;;;27.62;10.68;;;;;;;-16.16;64.04;99547.97;1715039;82;20177;-66
2021/01/18 03:53:05;;;;;;;31.00;13.78;;;;;;;-16.23;64.06;99541.00;1738350;82;21322;-66
2021/01/18 03:55:33;;;;;;;32.90;14.30;;;;;;;-16.34;64.04;99536.44;1724282;82;21186;-66
2021/01/18 03:58:00;;;;;;;34.88;14.58;;;;;;;-16.41;64.13;99535.76;1712988;84;21317;-66
2021/01/18 04:00:30;;;;;;;33.65;15.25;;;;;;;-16.41;64.13;99533.23;1735786;82;21205;-66
2021/01/18 04:02:57;;;;;;;35.78;16.17;;;;;;;-16.41;64.18;99530.69;1730470;82;21662;-66
2021/01/18 04:05:27;;;;;;;31.23;14.45;;;;;;;-16.42;64.21;99527.70;1741669;81;21323;-66
2021/01/18 04:07:56;;;;;;;34.15;14.53;;;;;;;-16.39;64.17;99537.95;1721378;82;21269;-66
2021/01/18 04:10:28;;;;;;;33.08;16.07;;;;;;;-16.43;64.06;99528.53;1736686;82;21334;-66
2021/01/18 04:12:57;;;;;;;35.10;13.95;;;;;;;-16.45;64.18;99531.82;1738661;82;21151;-66
2021/01/18 04:15:26;;;;;;;29.15;13.00;;;;;;;-16.46;64.34;99530.09;1744762;82;21341;-67
2021/01/18 04:17:55;;;;;;;31.68;13.20;;;;;;;-16.39;64.29;99532.89;1745151;82;21333;-65
2021/01/18 04:21:08;;;;;;;32.42;14.07;;;;;;;-16.33;63.97;99524.23;1757230;79;22936;-65
2021/01/18 04:23:35;;;;;;;30.85;13.45;;;;;;;-16.42;64.08;99539.52;1746375;80;21697;-65
2021/01/18 04:26:02;;;;;;;27.67;13.08;;;;;;;-16.43;64.01;99537.40;1755902;82;21201;-65
2021/01/18 04:28:29;;;;;;;38.92;16.50;;;;;;;-16.42;63.93;99539.52;1763878;80;22000;-65
2021/01/18 04:30:56;;;;;;;33.28;15.88;;;;;;;-16.49;63.79;99534.23;1732271;82;21301;-67
2021/01/18 04:33:25;;;;;;;24.47;14.40;;;;;;;-16.51;63.92;99535.83;1724558;80;21300;-66
2021/01/18 04:35:55;;;;;;;36.13;14.38;;;;;;;-16.57;63.89;99545.77;1778884;80;21293;-67
2021/01/18 04:38:24;;;;;;;31.05;13.80;;;;;;;-16.63;63.82;99554.80;1786581;80;21611;-66
2021/01/18 04:40:51;;;;;;;28.07;12.45;;;;;;;-16.61;63.72;99541.80;1775660;80;21297;-66
2021/01/18 04:43:18;;;;;;;29.75;13.72;;;;;;;-16.60;63.67;99542.27;1712886;83;21155;-66
2021/01/18 04:45:45;;;;;;;29.15;12.88;;;;;;;-16.68;63.62;99548.33;1739046;82;21309;-67
2021/01/18 04:48:13;;;;;;;28.42;13.05;;;;;;;-16.74;63.59;99548.10;1741914;82;21194;-67
2021/01/18 04:50:41;;;;;;;36.15;14.35;;;;;;;-16.82;63.64;99546.56;1727853;82;21174;-67
2021/01/18 04:53:15;;;;;;;27.30;11.97;;;;;;;-16.79;63.75;99559.31;1712621;83;21305;-66
2021/01/18 04:55:56;;;;;;;29.92;13.60;;;;;;;-16.76;63.82;99561.09;1742046;82;21487;-66
2021/01/18 04:58:28;;;;;;;36.30;13.78;;;;;;;-16.80;63.86;99552.52;1689696;84;21225;-65
2021/01/18 05:00:56;;;;;;;31.23;12.45;;;;;;;-16.77;63.86;99558.98;1689988;84;21158;-66
2021/01/18 05:03:26;;;;;;;22.58;11.25;;;;;;;-16.75;63.85;99559.91;1684706;84;21317;-66
2021/01/18 05:06:15;;;;;;;27.20;13.25;;;;;;;-16.70;63.78;99559.66;1678566;85;21187;-66
2021/01/18 05:09:13;;;;;;;32.65;14.23;;;;;;;-16.70;63.83;99559.66;1689645;84;22198;-66
2021/01/18 05:11:41;;;;;;;33.15;13.18;;;;;;;-16.71;63.79;99565.53;1679819;84;21254;-65
2021/01/18 05:14:08;;;;;;;28.17;12.65;;;;;;;-16.77;63.65;99565.69;1679992;84;21292;-66
2021/01/18 05:16:36;;;;;;;30.55;13.95;;;;;;;-16.76;63.73;99569.56;1651896;85;21241;-66
2021/01/18 05:19:12;;;;;;;32.35;12.63;;;;;;;-16.75;63.64;99571.30;1686199;84;21189;-65
2021/01/18 05:21:42;;;;;;;32.60;13.20;;;;;;;-16.76;63.48;99572.09;1696289;84;21182;-66
2021/01/18 05:24:10;;;;;;;30.10;14.65;;;;;;;-16.88;63.31;99577.55;1696380;83;21193;-66
2021/01/18 05:26:38;;;;;;;41.28;14.50;;;;;;;-17.07;63.50;99573.53;1696212;84;21308;-66
2021/01/18 05:29:06;;;;;;;38.53;15.00;;;;;;;-17.07;63.71;99587.44;1721665;82;21703;-66
2021/01/18 05:31:37;;;;;;;33.25;14.05;;;;;;;-17.10;63.67;99597.42;1707106;82;21304;-66
2021/01/18 05:34:12;;;;;;;29.77;14.38;;;;;;;-17.14;63.81;99590.53;1712104;82;21127;-66
2021/01/18 05:36:45;;;;;;;34.95;15.40;;;;;;;-17.10;63.73;99598.69;1724710;82;21136;-66
2021/01/18 05:39:23;;;;;;;;;;;;;;;-17.10;63.69;99599.95;1698552;84;21349;-65
2021/01/18 05:41:53;;;;;;;39.30;16.42;;;;;;;-17.08;63.73;99596.21;1724154;82;20190;-66
2021/01/18 05:44:33;;;;;;;41.80;19.90;;;;;;;-17.13;63.65;99596.06;1688218;84;21592;-66
2021/01/18 05:47:05;;;;;;;42.17;18.35;;;;;;;-17.16;63.67;99595.92;1688001;82;21183;-66
2021/01/18 05:49:45;;;;;;;36.23;15.67;;;;;;;-17.12;63.66;99601.55;1724389;82;21140;-67
2021/01/18 05:52:31;;;;;;;36.55;14.43;;;;;;;-17.08;63.55;99614.80;1707025;82;21139;-67
2021/01/18 05:55:24;;;;;;;34.45;15.13;;;;;;;-17.10;63.50;99612.59;1725524;82;21718;-67
2021/01/18 05:58:01;;;;;;;35.40;16.67;;;;;;;-17.14;63.63;99622.14;1697490;84;21642;-66
2021/01/18 06:00:35;;;;;;;34.50;16.70;;;;;;;-17.15;63.70;99620.00;1714221;82;21187;-66
2021/01/18 06:03:09;;;;;;;35.90;15.75;;;;;;;-17.15;63.92;99638.11;1714570;82;21600;-66
2021/01/18 06:05:38;;;;;;;33.67;15.55;;;;;;;-17.08;64.14;99632.50;1723223;82;21156;-66
2021/01/18 06:08:16;;;;;;;29.37;13.15;;;;;;;-17.00;64.14;99627.73;1695550;84;21202;-66
2021/01/18 06:10:47;;;;;;;27.10;12.82;;;;;;;-16.89;64.26;99626.83;1729028;82;21288;-67
2021/01/18 06:13:28;;;;;;;36.10;14.07;;;;;;;-16.85;64.02;99621.95;1695347;84;21311;-67
2021/01/18 06:16:05;;;;;;;31.77;14.45;;;;;;;-16.82;64.23;99621.20;1674132;84;21301;-65
2021/01/18 06:18:34;;;;;;;26.80;10.63;;;;;;;-16.73;64.33;99625.75;1674494;84;21194;-66
2021/01/18 06:21:04;;;;;;;32.78;15.15;;;;;;;-16.72;64.38;99632.12;1689906;84;21203;-66
2021/01/18 06:23:31;;;;;;;37.23;15.20;;;;;;;-16.70;64.53;99620.40;1698818;84;21328;-67
2021/01/18 06:25:59;;;;;;;38.13;16.65;;;;;;;-16.60;64.62;99620.73;1689951;84;21194;-67
2021/01/18 06:28:35;;;;;;;30.85;11.73;;;;;;;-16.53;64.78;99615.06;1672664;84;21174;-67
2021/01/18 06:31:05;;;;;;;36.95;15.75;;;;;;;-16.41;64.94;99633.23;1670994;84;21218;-66
2021/01/18 06:33:39;;;;;;;38.65;16.90;;;;;;;-16.32;65.09;99627.22;1668553;84;21174;-67
2021/01/18 06:36:19;;;;;;;48.30;19.27;;;;;;;-16.17;65.07;99631.12;1645722;86;21337;-66
2021/01/18 06:38:59;;;;;;;40.15;15.93;;;;;;;-16.06;65.11;99632.37;1666724;84;21171;-65
2021/01/18 06:41:33;;;;;;;33.05;15.48;;;;;;;-15.92;65.05;99639.14;1671130;85;21207;-66
2021/01/18 06:44:00;;;;;;;42.98;18.02;;;;;;;-15.85;65.02;99645.30;1679890;84;21175;-66
2021/01/18 06:46:36;;;;;;;42.85;17.27;;;;;;;-15.76;65.05;99632.91;1648140;86;21215;-67
2021/01/18 06:49:03;;;;;;;38.75;16.70;;;;;;;-15.66;65.01;99634.08;1646848;84;21346;-66
2021/01/18 06:51:31;;;;;;;40.48;16.77;;;;;;;-15.54;65.23;99645.02;1710908;82;21146;-67
2021/01/18 06:53:59;;;;;;;38.10;16.02;;;;;;;-15.45;64.85;99650.38;1710759;82;21136;-67
2021/01/18 06:56:37;;;;;;;35.25;16.62;;;;;;;-15.38;64.89;99643.83;1715361;82;21170;-67
2021/01/18 06:59:40;;;;;;;44.05;18.85;;;;;;;-15.26;64.82;99644.65;1693658;83;21297;-68
2021/01/18 07:02:22;;;;;;;43.35;18.48;;;;;;;-15.20;64.63;99645.70;1701171;82;21196;-67
2021/01/18 07:04:50;;;;;;;46.75;18.40;;;;;;;-15.12;64.52;99654.81;1736994;82;21286;-67
2021/01/18 07:07:30;;;;;;;39.10;18.52;;;;;;;-15.09;64.47;99658.70;1722670;82;21207;-67
2021/01/18 07:10:01;;;;;;;41.90;20.05;;;;;;;-15.08;64.40;99664.23;1695438;84;21198;-67
2021/01/18 07:12:29;;;;;;;51.60;21.42;;;;;;;-15.05;64.28;99666.89;1702292;82;21185;-67
2021/01/18 07:15:07;;;;;;;49.15;21.25;;;;;;;-15.02;64.33;99666.97;1713404;82;21155;-67
2021/01/18 07:17:52;;;;;;;51.88;21.62;;;;;;;-15.00;64.33;99669.16;1710115;82;21203;-67
2021/01/18 07:20:25;;;;;;;50.00;20.68;;;;;;;-14.95;64.33;99669.70;1693175;84;21178;-67
2021/01/18 07:23:14;;;;;;;58.35;21.87;;;;;;;-14.94;64.32;99681.17;1684533;82;21167;-67
2021/01/18 07:25:48;;;;;;;57.80;22.02;;;;;;;-14.88;64.49;99685.59;1710387;82;21123;-66
2021/01/18 07:28:19;;;;;;;36.63;16.10;;;;;;;-14.79;64.52;99668.09;1710348;82;21171;-66
2021/01/18 07:30:46;;;;;;;47.60;20.43;;;;;;;-14.68;64.74;99666.74;1703982;82;21190;-66
2021/01/18 07:33:16;;;;;;;54.83;23.60;;;;;;;-14.53;64.89;99678.97;1723267;82;21305;-66
2021/01/18 07:35:45;;;;;;;52.93;23.92;;;;;;;-14.32;64.93;99661.78;1743699;82;21852;-67
2021/01/18 07:38:20;;;;;;;55.92;23.18;;;;;;;-14.19;64.59;99661.32;1725199;82;21151;-67
2021/01/18 07:41:09;;;;;;;61.65;26.48;;;;;;;-14.14;64.52;99662.31;1711729;82;21167;-67
2021/01/18 07:43:45;;;;;;;35.43;16.90;;;;;;;-14.05;64.37;99664.22;1744775;82;21172;-67
2021/01/18 07:46:31;;;;;;;44.75;19.65;;;;;;;-14.02;64.16;99657.54;1737464;82;21285;-67
2021/01/18 07:49:00;;;;;;;41.00;17.55;;;;;;;-14.05;64.17;99665.09;1691509;83;21197;-67
2021/01/18 07:51:32;;;;;;;45.67;18.67;;;;;;;-14.02;64.10;99663.89;1707743;82;21322;-68
2021/01/18 07:53:59;;;;;;;45.33;18.00;;;;;;;-14.01;64.32;99667.31;1743287;82;21539;-68
2021/01/18 07:56:28;;;;;;;39.33;18.20;;;;;;;-13.90;64.43;99672.67;1744435;82;21329;-68
2021/01/18 07:59:05;;;;;;;40.88;16.95;;;;;;;-13.79;64.46;99675.09;1705773;82;21144;-67
2021/01/18 08:01:37;;;;;;;49.83;20.88;;;;;;;-13.75;63.99;99681.13;1724213;82;21159;-67
2021/01/18 08:04:25;;;;;;;42.27;19.15;;;;;;;-13.76;63.68;99681.52;1716961;82;21146;-67
2021/01/18 08:07:08;;;;;;;41.30;18.25;;;;;;;-13.79;63.80;99684.42;1714523;82;21147;-66
2021/01/18 08:09:37;;;;;;;40.12;17.90;;;;;;;-13.78;63.49;99695.02;1703229;82;21591;-66
2021/01/18 08:12:34;;;;;;;42.80;18.12;;;;;;;-13.65;66.47;99682.24;1696762;82;21329;-66
2021/01/18 08:15:08;;;;;;;39.18;17.27;;;;;;;-13.38;64.77;99688.02;1709074;82;21199;-67
2021/01/18 08:17:36;;;;;;;38.45;15.93;;;;;;;-13.25;63.86;99684.48;1736837;82;21135;-66
2021/01/18 08:20:16;;;;;;;39.60;17.87;;;;;;;-13.28;63.23;99681.87;1744294;82;21203;-68
2021/01/18 08:22:44;;;;;;;44.23;18.67;;;;;;;-13.34;62.81;99682.56;1735022;82;21161;-66
2021/01/18 08:25:11;;;;;;;37.78;15.60;;;;;;;-13.30;62.87;99684.78;1728758;82;21190;-67
2021/01/18 08:27:51;;;;;;;46.25;18.10;;;;;;;-13.25;62.86;99683.20;1672659;82;21624;-67
2021/01/18 08:30:29;;;;;;;38.38;17.50;;;;;;;-13.21;62.58;99681.17;1691524;83;21330;-66
2021/01/18 08:33:06;;;;;;;42.15;18.32;;;;;;;-13.19;62.41;99691.84;1650121;87;21162;-67
2021/01/18 08:35:49;;;;;;;42.90;18.25;;;;;;;-13.13;62.38;99692.42;1707095;82;21174;-67
2021/01/18 08:38:24;;;;;;;41.13;18.87;;;;;;;-13.06;62.25;99693.00;1714735;84;21204;-67
2021/01/18 08:40:55;;;;;;;35.52;15.85;;;;;;;-13.02;61.98;99692.27;1700721;82;21171;-67
2021/01/18 08:43:23;;;;;;;47.13;21.20;;;;;;;-13.01;61.38;99685.48;1712041;82;21324;-66
2021/01/18 08:45:53;;;;;;;37.75;17.12;;;;;;;-13.04;61.56;99685.42;1688914;84;21179;-67
2021/01/18 08:48:29;;;;;;;64.20;26.33;;;;;;;-12.95;62.08;99677.11;1718946;82;21442;-67
2021/01/18 08:51:01;;;;;;;100.42;32.83;;;;;;;-12.78;61.50;99668.19;1744360;82;21306;-67
2021/01/18 08:53:41;;;;;;;43.08;19.52;;;;;;;-12.72;60.98;99676.39;1728828;82;21176;-67
2021/01/18 08:56:29;;;;;;;44.50;18.73;;;;;;;-12.69;61.33;99673.47;1737276;82;21649;-66
2021/01/18 08:58:57;;;;;;;71.33;26.90;;;;;;;-12.61;60.85;99677.89;1673867;84;21205;-66
2021/01/18 09:01:30;;;;;;;65.60;27.70;;;;;;;-12.61;60.78;99674.06;1710375;82;21151;-67
2021/01/18 09:04:01;;;;;;;42.73;17.27;;;;;;;-12.54;60.90;99669.56;1714245;82;21277;-67
2021/01/18 09:06:29;;;;;;;39.78;16.87;;;;;;;-12.42;60.79;99668.52;1708922;82;21923;-67
2021/01/18 09:09:05;;;;;;;48.60;21.15;;;;;;;-12.27;60.87;99665.87;1737918;81;21188;-67
2021/01/18 09:11:34;;;;;;;50.83;21.45;;;;;;;-12.16;60.54;99671.17;1674265;82;21114;-67
2021/01/18 09:14:02;;;;;;;55.28;23.00;;;;;;;-12.16;60.04;99664.38;1703382;82;21718;-66
2021/01/18 09:16:29;;;;;;;40.08;16.37;;;;;;;-12.16;59.97;99668.20;1736916;82;21342;-67
2021/01/18 09:19:06;;;;;;;41.23;19.05;;;;;;;-12.15;59.78;99657.17;1678181;82;21294;-66
2021/01/18 09:21:35;;;;;;;40.28;17.85;;;;;;;-12.13;60.13;99653.38;1724234;82;21189;-67
2021/01/18 09:24:08;;;;;;;50.23;20.57;;;;;;;-12.12;59.62;99650.87;1702244;83;21226;-67
2021/01/18 09:26:35;;;;;;;43.08;19.60;;;;;;;-12.17;59.66;99654.16;1725341;81;21594;-67
2021/01/18 09:29:02;;;;;;;44.33;19.07;;;;;;;-12.23;59.72;99643.00;1761222;81;21202;-67
2021/01/18 09:31:30;;;;;;;38.13;15.78;;;;;;;-12.30;59.43;99644.13;1761334;81;21186;-67
2021/01/18 09:34:11;;;;;;;39.15;17.12;;;;;;;-12.50;59.85;99638.22;1742442;81;21690;-66
2021/01/18 09:36:42;;;;;;;;;;;;;;;-12.60;60.24;99643.95;1749035;81;21123;-67
2021/01/18 09:39:20;;;;;;;40.43;17.62;;;;;;;-12.55;60.30;99637.26;1736195;81;20270;-66
2021/01/18 09:41:51;;;;;;;33.63;13.90;;;;;;;-12.60;60.24;99635.87;1757679;81;21618;-66
2021/01/18 09:44:18;;;;;;;39.25;17.92;;;;;;;-12.61;60.26;99632.03;1753411;81;21177;-66
2021/01/18 09:46:46;;;;;;;33.53;17.70;;;;;;;-12.65;60.15;99628.55;1727998;81;21151;-66
2021/01/18 09:49:16;;;;;;;40.85;18.30;;;;;;;-12.66;60.43;99628.10;1717565;83;21158;-66
2021/01/18 09:51:43;;;;;;;43.35;20.00;;;;;;;-12.49;60.49;99626.32;1684885;81;21169;-67
2021/01/18 09:54:10;;;;;;;33.88;17.67;;;;;;;-12.32;60.66;99635.18;1730804;83;21634;-66
2021/01/18 09:56:37;;;;;;;40.17;19.35;;;;;;;-12.10;60.38;99640.70;1707004;81;21676;-67
2021/01/18 09:59:06;;;;;;;40.03;17.70;;;;;;;-12.05;60.03;99622.10;1717893;81;21344;-67
2021/01/18 10:01:34;;;;;;;48.58;23.45;;;;;;;-11.95;59.71;99628.67;1739936;81;21166;-67
2021/01/18 10:04:04;;;;;;;47.00;19.35;;;;;;;-11.89;59.35;99628.73;1691907;81;21318;-67
2021/01/18 10:06:34;;;;;;;43.58;19.37;;;;;;;-11.85;59.04;99627.98;1684534;83;21713;-66
2021/01/18 10:09:09;;;;;;;41.85;17.32;;;;;;;-11.78;59.21;99627.23;1716039;81;21193;-67
2021/01/18 10:11:46;;;;;;;33.10;16.30;;;;;;;-11.67;59.02;99620.19;1719651;81;21324;-67
2021/01/18 10:14:23;;;;;;;40.43;16.80;;;;;;;-11.63;58.83;99624.10;1710262;83;21345;-67
2021/01/18 10:17:03;;;;;;;39.50;17.00;;;;;;;-11.57;59.17;99624.61;1726575;81;21178;-68
2021/01/18 10:19:34;;;;;;;33.60;16.42;;;;;;;-11.56;58.83;99619.95;1703819;83;21671;-67
2021/01/18 10:22:04;;;;;;;36.30;15.80;;;;;;;-11.51;58.67;99628.55;1720247;82;21159;-66
2021/01/18 10:24:33;;;;;;;44.03;18.62;;;;;;;-11.48;58.82;99623.52;1710477;82;21623;-67
2021/01/18 10:27:13;;;;;;;35.17;15.58;;;;;;;-11.36;61.89;99624.97;1703908;83;21179;-67
2021/01/18 10:29:41;;;;;;;34.38;14.68;;;;;;;-10.99;59.78;99613.20;1715130;82;21158;-66
2021/01/18 10:32:09;;;;;;;38.30;16.77;;;;;;;-10.93;58.69;99612.02;1721246;83;21142;-67
2021/01/18 10:34:37;;;;;;;38.40;16.73;;;;;;;-10.99;59.05;99614.47;1710136;82;21147;-67
2021/01/18 10:37:17;;;;;;;31.40;16.50;;;;;;;-11.02;58.81;99623.38;1706264;82;21142;-67
2021/01/18 10:39:49;;;;;;;38.40;16.73;;;;;;;-11.03;59.04;99610.16;1708344;83;21194;-66
2021/01/18 10:42:19;;;;;;;38.00;15.98;;;;;;;-10.97;58.77;99611.53;1727125;82;21134;-67
2021/01/18 10:44:55;;;;;;;35.65;14.35;;;;;;;-10.85;59.00;99611.27;1744419;82;21332;-67
2021/01/18 10:47:28;;;;;;;29.27;13.08;;;;;;;-10.72;58.87;99610.16;1727036;82;21191;-67
2021/01/18 10:50:00;;;;;;;30.68;13.90;;;;;;;-10.67;58.00;99620.45;1712310;82;21162;-67
2021/01/18 10:52:37;;;;;;;23.87;11.55;;;;;;;-10.73;57.96;99616.53;1711181;83;21349;-66
2021/01/18 10:55:06;;;;;;;31.87;14.05;;;;;;;-10.85;57.71;99612.55;1724379;82;21201;-67
2021/01/18 11:00:28;;;;;;;28.90;13.93;;;;;;;-11.16;58.00;99609.52;1818233;78;22704;-67
2021/01/18 11:03:02;;;;;;;29.92;13.48;;;;;;;-11.26;58.17;99613.22;1780439;79;21154;-67
2021/01/18 11:05:34;;;;;;;30.65;12.55;;;;;;;-11.22;58.70;99609.02;1763492;80;21179;-67
2021/01/18 11:08:09;;;;;;;30.60;13.13;;;;;;;-11.16;58.37;99612.95;1768796;79;21321;-66
2021/01/18 11:10:44;;;;;;;47.08;15.30;;;;;;;-11.23;58.58;99612.41;1704742;83;21167;-67
2021/01/18 11:13:19;;;;;;;31.48;13.53;;;;;;;-11.12;58.92;99617.27;1718711;82;21679;-66
2021/01/18 11:15:49;;;;;;;35.92;14.40;;;;;;;-10.98;58.84;99607.66;1719867;83;21571;-67
2021/01/18 11:18:21;;;;;;;32.42;13.28;;;;;;;-10.83;58.67;99610.85;1701058;83;21194;-66
2021/01/18 11:20:53;;;;;;;31.15;14.95;;;;;;;-10.75;58.54;99601.19;1701131;83;21201;-66
2021/01/18 11:23:21;;;;;;;33.25;14.95;;;;;;;-10.72;58.05;99599.93;1707064;83;21298;-66
2021/01/18 11:25:48;;;;;;;28.17;12.47;;;;;;;-10.81;57.83;99595.14;1740404;81;21302;-66
2021/01/18 11:28:17;;;;;;;32.48;14.28;;;;;;;-10.82;58.26;99593.42;1683521;84;21199;-66
2021/01/18 11:30:45;;;;;;;30.72;12.70;;;;;;;-10.79;57.82;99589.61;1697231;84;21579;-67
2021/01/18 11:33:12;;;;;;;26.60;12.73;;;;;;;-10.80;57.69;99593.88;1725636;81;21148;-66
2021/01/18 11:35:42;;;;;;;32.38;14.10;;;;;;;-10.80;58.11;99582.37;1726262;82;21297;-65
2021/01/18 11:38:10;;;;;;;29.23;12.80;;;;;;;-10.82;57.96;99608.31;1730679;81;21188;-66
2021/01/18 11:40:38;;;;;;;38.00;14.83;;;;;;;-10.81;57.95;99607.91;1700277;82;21301;-67